McCook, Nebraska
Current Conditions -  °F | °C
As of 5:53 AM on Friday 31 Oct 2014 (Local Time) from KMCK Reporting Station
Overcast Overcast  
Wind Chill: 24°   Ceiling: 800
Heat Index: 32°   Visibility: 9mi
Dew Point: 29°   Wind: 10mph
Humidity: 88%   Direction: 50°NE
Pressure: 30.5"   Gusts: NA
Location:  40.2°N, 100.62°W
Report Text: KMCK 311053Z AUTO 05009KT 9SM OVC008 00/M02 A3050 RMK AO2 SLP333 T00001017
Loading
Personal Weather Stations






























Interactive Weather Map
Tropical Storm Tracking
New forecast layout! Learn more

10-Day Weather Forecast

Advertisements
Track Severe Weather on mobile